Terminal Aerodrome Forecast
Issued by NWS

Home | Current Version | Previous Version | Text Only | Print | Product List | Glossary On
Versions: 1 2 3 4 5 6 7 8 9 10 11 12 13 14 15 16 17 18 19 20 21 22 23
732
FTUS43 KIND 200521
TAFHUF
TAF
KHUF 200521Z 2006/2106 10004KT 5SM SHRA BR OVC003
     FM201200 20004KT 1/2SM FG VCSH OVC003
     FM201800 20007KT 4SM BR OVC008
     FM202100 19007KT 6SM BR OVC010=

USA.gov is the U.S. government's official web portal to all federal, state and local government web resources and services.